Dades meteomassalio
Diari Summary for Febrer 25, 2018 Units:  Both    English   Metric
« Previous Day
Next Day »
Diari Semanal Mensual Anual Personalitzat
  Maxima: Minima: Mijana:
Temperatura: TemperatureC °F /  -17.8 °C -5.0 °F /  -20.6 °C 3.4 °F /  -15.9 °C
Rosada: DewpointC °F /  -17.8 °C -10.8 °F /  -23.8 °C -3.8 °F /  -19.9 °C
Humitat: Humidity % 35 % 63 %
Velocitat del vent: WindSpeedKMH mph /  0 km/h - 6.8 mph /  10.9 km/h
Racha vent: WindSpeedGustKMH mph /  0 km/h - -
Vent:- - WSW
Pressio: PressurehPa in /  0 hPa 1012.4 in /  34279.9 hPa -
Pluja: 0.0 in /  0 mm    
Historical Graphs
 
 
Tabular Data for Febrer 25, 2018
Time Temperature Dew Point Pressure Wind Wind Speed Wind Gust Humidity Rainfall Rate (Hourly) solar Conditions
TemperatureC °F /  -17.8 °C DewpointC °F /  -17.8 °C PressurehPa in /  0 hPa Calm     Humidity % HourlyPrecipMM in /  0 mm SolarRadiationWatts/m^2 W/m2 Conditions
00:01 -2.8 °F /  -19.3 °C -5.1 °F /  -20.6 °C 1014.1 in /  34337.4 hPa Calm     84 % 0.0 in /  0 mm 0.0 W/m2 CLR
00:06 -2.8 °F /  -19.3 °C -5.1 °F /  -20.6 °C 1014.1 in /  34337.4 hPa Calm     84 % 0.0 in /  0 mm 0.0 W/m2 CLR
00:11 -2.8 °F /  -19.3 °C -5.1 °F /  -20.6 °C 1014.1 in /  34337.4 hPa Calm     84 % 0.0 in /  0 mm 0.0 W/m2 CLR
00:16 -2.8 °F /  -19.3 °C -5.1 °F /  -20.6 °C 1013.8 in /  34327.3 hPa Calm     84 % 0.0 in /  0 mm 0.0 W/m2 CLR
00:21 -2.8 °F /  -19.3 °C -4.9 °F /  -20.5 °C 1014.1 in /  34337.4 hPa Calm     85 % 0.0 in /  0 mm 0.0 W/m2 CLR
00:27 -2.2 °F /  -19 °C -4.4 °F /  -20.2 °C 1014.1 in /  34337.4 hPa Calm     85 % 0.0 in /  0 mm 0.0 W/m2 CLR
00:32 -2.2 °F /  -19 °C -4.4 °F /  -20.2 °C 1014.1 in /  34337.4 hPa Calm     85 % 0.0 in /  0 mm 0.0 W/m2 CLR
00:37 -2.8 °F /  -19.3 °C -5.1 °F /  -20.6 °C 1014.1 in /  34337.4 hPa Calm     84 % 0.0 in /  0 mm 0.0 W/m2 CLR
00:42 -2.8 °F /  -19.3 °C -4.9 °F /  -20.5 °C 1014.1 in /  34337.4 hPa Calm     85 % 0.0 in /  0 mm 0.0 W/m2 CLR
00:47 -2.8 °F /  -19.3 °C -4.9 °F /  -20.5 °C 1014.1 in /  34337.4 hPa Calm     85 % 0.0 in /  0 mm 0.0 W/m2 CLR
00:52 -2.8 °F /  -19.3 °C -4.9 °F /  -20.5 °C 1014.1 in /  34337.4 hPa Calm     85 % 0.0 in /  0 mm 0.0 W/m2 CLR
00:57 -2.8 °F /  -19.3 °C -4.9 °F /  -20.5 °C 1014.1 in /  34337.4 hPa Calm     85 % 0.0 in /  0 mm 0.0 W/m2 CLR
01:02 -2.8 °F /  -19.3 °C -4.9 °F /  -20.5 °C 1014.1 in /  34337.4 hPa Calm     85 % 0.0 in /  0 mm 0.0 W/m2 CLR
01:08 -2.8 °F /  -19.3 °C -4.8 °F /  -20.4 °C 1014.1 in /  34337.4 hPa Calm     86 % 0.0 in /  0 mm 0.0 W/m2 CLR
01:13 -3.3 °F /  -19.6 °C -5.3 °F /  -20.7 °C 1014.1 in /  34337.4 hPa Calm     86 % 0.0 in /  0 mm 0.0 W/m2 CLR
01:18 -3.3 °F /  -19.6 °C -5.3 °F /  -20.7 °C 1014.1 in /  34337.4 hPa Calm     86 % 0.0 in /  0 mm 0.0 W/m2 CLR
01:23 -3.3 °F /  -19.6 °C -5.3 °F /  -20.7 °C 1014.1 in /  34337.4 hPa Calm     86 % 0.0 in /  0 mm 0.0 W/m2 CLR
01:28 -3.3 °F /  -19.6 °C -5.3 °F /  -20.7 °C 1013.8 in /  34327.3 hPa Calm     86 % 0.0 in /  0 mm 0.0 W/m2 CLR
01:33 -3.3 °F /  -19.6 °C -5.3 °F /  -20.7 °C 1014.1 in /  34337.4 hPa Calm     86 % 0.0 in /  0 mm 0.0 W/m2 CLR
01:38 -3.3 °F /  -19.6 °C -5.3 °F /  -20.7 °C 1013.8 in /  34327.3 hPa Calm     86 % 0.0 in /  0 mm 0.0 W/m2 CLR
01:43 -3.3 °F /  -19.6 °C -5.3 °F /  -20.7 °C 1013.8 in /  34327.3 hPa Calm     86 % 0.0 in /  0 mm 0.0 W/m2 CLR
01:48 -3.3 °F /  -19.6 °C -5.3 °F /  -20.7 °C 1014.1 in /  34337.4 hPa Calm     86 % 0.0 in /  0 mm 0.0 W/m2 CLR
01:53 -3.3 °F /  -19.6 °C -5.3 °F /  -20.7 °C 1014.1 in /  34337.4 hPa Calm     86 % 0.0 in /  0 mm 0.0 W/m2 CLR
01:58 -3.3 °F /  -19.6 °C -5.3 °F /  -20.7 °C 1014.1 in /  34337.4 hPa Calm     86 % 0.0 in /  0 mm 0.0 W/m2 CLR
02:03 -3.3 °F /  -19.6 °C -5.3 °F /  -20.7 °C 1014.1 in /  34337.4 hPa Calm     86 % 0.0 in /  0 mm 0.0 W/m2 CLR
02:08 -3.3 °F /  -19.6 °C -5.3 °F /  -20.7 °C 1014.1 in /  34337.4 hPa Calm     86 % 0.0 in /  0 mm 0.0 W/m2 CLR
02:13 -3.3 °F /  -19.6 °C -5.2 °F /  -20.7 °C 1014.1 in /  34337.4 hPa Calm     87 % 0.0 in /  0 mm 0.0 W/m2 CLR
02:18 -3.3 °F /  -19.6 °C -5.2 °F /  -20.7 °C 1014.1 in /  34337.4 hPa Calm     87 % 0.0 in /  0 mm 0.0 W/m2 CLR
02:23 -3.3 °F /  -19.6 °C -5.2 °F /  -20.7 °C 1014.1 in /  34337.4 hPa Calm     87 % 0.0 in /  0 mm 0.0 W/m2 CLR
02:28 -3.3 °F /  -19.6 °C -5.2 °F /  -20.7 °C 1014.1 in /  34337.4 hPa Calm     87 % 0.0 in /  0 mm 0.0 W/m2 CLR
02:33 -3.3 °F /  -19.6 °C -5.2 °F /  -20.7 °C 1014.1 in /  34337.4 hPa Calm     87 % 0.0 in /  0 mm 0.0 W/m2 CLR
02:38 -3.3 °F /  -19.6 °C -5.2 °F /  -20.7 °C 1014.4 in /  34347.6 hPa Calm     87 % 0.0 in /  0 mm 0.0 W/m2 CLR
02:43 -3.3 °F /  -19.6 °C -5.2 °F /  -20.7 °C 1014.4 in /  34347.6 hPa Calm     87 % 0.0 in /  0 mm 0.0 W/m2 CLR
02:48 -3.3 °F /  -19.6 °C -5.2 °F /  -20.7 °C 1014.4 in /  34347.6 hPa Calm     87 % 0.0 in /  0 mm 0.0 W/m2 CLR
02:53 -3.3 °F /  -19.6 °C -5.2 °F /  -20.7 °C 1014.4 in /  34347.6 hPa Calm     87 % 0.0 in /  0 mm 0.0 W/m2 CLR
02:58 -3.3 °F /  -19.6 °C -5.2 °F /  -20.7 °C 1014.4 in /  34347.6 hPa Calm     87 % 0.0 in /  0 mm 0.0 W/m2 CLR
03:03 -3.9 °F /  -19.9 °C -5.6 °F /  -20.9 °C 1014.4 in /  34347.6 hPa Calm     88 % 0.0 in /  0 mm 0.0 W/m2 CLR
03:08 -3.9 °F /  -19.9 °C -5.6 °F /  -20.9 °C 1014.4 in /  34347.6 hPa Calm     88 % 0.0 in /  0 mm 0.0 W/m2 CLR
03:13 -3.9 °F /  -19.9 °C -5.7 °F /  -20.9 °C 1014.4 in /  34347.6 hPa Calm     87 % 0.0 in /  0 mm 0.0 W/m2 CLR
03:18 -3.9 °F /  -19.9 °C -5.6 °F /  -20.9 °C 1014.4 in /  34347.6 hPa Calm     88 % 0.0 in /  0 mm 0.0 W/m2 CLR
03:23 -3.9 °F /  -19.9 °C -5.6 °F /  -20.9 °C 1014.4 in /  34347.6 hPa Calm     88 % 0.0 in /  0 mm 0.0 W/m2 CLR
03:28 -3.9 °F /  -19.9 °C -5.6 °F /  -20.9 °C 1014.4 in /  34347.6 hPa Calm     88 % 0.0 in /  0 mm 0.0 W/m2 CLR
03:33 -3.9 °F /  -19.9 °C -5.6 °F /  -20.9 °C 1014.4 in /  34347.6 hPa Calm     88 % 0.0 in /  0 mm 0.0 W/m2 CLR
03:38 -3.3 °F /  -19.6 °C -5.1 °F /  -20.6 °C 1014.4 in /  34347.6 hPa Calm     88 % 0.0 in /  0 mm 0.0 W/m2 CLR
03:43 -3.3 °F /  -19.6 °C -5.1 °F /  -20.6 °C 1014.4 in /  34347.6 hPa Calm     88 % 0.0 in /  0 mm 0.0 W/m2 CLR
03:48 -3.3 °F /  -19.6 °C -5.1 °F /  -20.6 °C 1014.4 in /  34347.6 hPa Calm     88 % 0.0 in /  0 mm 0.0 W/m2 CLR
03:53 -3.9 °F /  -19.9 °C -5.4 °F /  -20.8 °C 1014.4 in /  34347.6 hPa Calm     89 % 0.0 in /  0 mm 0.0 W/m2 CLR
03:58 -3.9 °F /  -19.9 °C -5.4 °F /  -20.8 °C 1014.4 in /  34347.6 hPa Calm     89 % 0.0 in /  0 mm 0.0 W/m2 CLR
04:03 -3.9 °F /  -19.9 °C -5.4 °F /  -20.8 °C 1014.4 in /  34347.6 hPa Calm     89 % 0.0 in /  0 mm 0.0 W/m2 CLR
04:08 -3.9 °F /  -19.9 °C -5.6 °F /  -20.9 °C 1014.4 in /  34347.6 hPa Calm     88 % 0.0 in /  0 mm 0.0 W/m2 CLR
04:13 -3.9 °F /  -19.9 °C -5.6 °F /  -20.9 °C 1014.4 in /  34347.6 hPa Calm     88 % 0.0 in /  0 mm 0.0 W/m2 CLR
04:18 -3.9 °F /  -19.9 °C -5.4 °F /  -20.8 °C 1014.4 in /  34347.6 hPa Calm     89 % 0.0 in /  0 mm 0.0 W/m2 CLR
04:23 -3.9 °F /  -19.9 °C -5.6 °F /  -20.9 °C 1014.4 in /  34347.6 hPa Calm     88 % 0.0 in /  0 mm 0.0 W/m2 CLR
04:28 -3.9 °F /  -19.9 °C -5.6 °F /  -20.9 °C 1014.4 in /  34347.6 hPa Calm     88 % 0.0 in /  0 mm 0.0 W/m2 CLR
04:33 -3.9 °F /  -19.9 °C -5.4 °F /  -20.8 °C 1014.4 in /  34347.6 hPa Calm     89 % 0.0 in /  0 mm 0.0 W/m2 CLR
04:38 -3.9 °F /  -19.9 °C -5.4 °F /  -20.8 °C 1014.4 in /  34347.6 hPa Calm     89 % 0.0 in /  0 mm 0.0 W/m2 CLR
04:43 -4.4 °F /  -20.2 °C -6.0 °F /  -21.1 °C 1014.4 in /  34347.6 hPa Calm     89 % 0.0 in /  0 mm 0.0 W/m2 CLR
04:48 -4.4 °F /  -20.2 °C -6.0 °F /  -21.1 °C 1014.4 in /  34347.6 hPa Calm     89 % 0.0 in /  0 mm 0.0 W/m2 CLR
04:53 -4.4 °F /  -20.2 °C -6.0 °F /  -21.1 °C 1014.4 in /  34347.6 hPa Calm     89 % 0.0 in /  0 mm 0.0 W/m2 CLR
04:58 -4.4 °F /  -20.2 °C -6.0 °F /  -21.1 °C 1014.4 in /  34347.6 hPa Calm     89 % 0.0 in /  0 mm 0.0 W/m2 CLR
05:03 -4.4 °F /  -20.2 °C -6.0 °F /  -21.1 °C 1014.4 in /  34347.6 hPa Calm     89 % 0.0 in /  0 mm 0.0 W/m2 CLR
05:08 -4.4 °F /  -20.2 °C -6.0 °F /  -21.1 °C 1014.4 in /  34347.6 hPa Calm     89 % 0.0 in /  0 mm 0.0 W/m2 CLR
05:13 -4.4 °F /  -20.2 °C -6.0 °F /  -21.1 °C 1014.4 in /  34347.6 hPa Calm     89 % 0.0 in /  0 mm 0.0 W/m2 CLR
05:19 -5.0 °F /  -20.6 °C -6.6 °F /  -21.4 °C 1014.4 in /  34347.6 hPa Calm     89 % 0.0 in /  0 mm 0.0 W/m2 CLR
05:23 -4.4 °F /  -20.2 °C -6.0 °F /  -21.1 °C 1014.4 in /  34347.6 hPa Calm     89 % 0.0 in /  0 mm 0.0 W/m2 CLR
05:29 -4.4 °F /  -20.2 °C -6.0 °F /  -21.1 °C 1014.4 in /  34347.6 hPa Calm     89 % 0.0 in /  0 mm 0.0 W/m2 CLR
05:34 -4.4 °F /  -20.2 °C -6.0 °F /  -21.1 °C 1014.4 in /  34347.6 hPa Calm     89 % 0.0 in /  0 mm 0.0 W/m2 CLR
05:39 -4.4 °F /  -20.2 °C -6.0 °F /  -21.1 °C 1014.4 in /  34347.6 hPa Calm     89 % 0.0 in /  0 mm 0.0 W/m2 CLR
05:44 -4.4 °F /  -20.2 °C -6.0 °F /  -21.1 °C 1014.4 in /  34347.6 hPa Calm     89 % 0.0 in /  0 mm 0.0 W/m2 CLR
05:49 -4.4 °F /  -20.2 °C -6.0 °F /  -21.1 °C 1014.4 in /  34347.6 hPa Calm     89 % 0.0 in /  0 mm 0.0 W/m2 CLR
05:54 -4.4 °F /  -20.2 °C -6.0 °F /  -21.1 °C 1014.4 in /  34347.6 hPa Calm     89 % 0.0 in /  0 mm 0.0 W/m2 CLR
05:59 -4.4 °F /  -20.2 °C -6.0 °F /  -21.1 °C 1014.4 in /  34347.6 hPa Calm     89 % 0.0 in /  0 mm 0.0 W/m2 CLR
06:04 -4.4 °F /  -20.2 °C -6.0 °F /  -21.1 °C 1014.4 in /  34347.6 hPa Calm     89 % 0.0 in /  0 mm 0.0 W/m2 CLR
06:09 -3.9 °F /  -19.9 °C -5.4 °F /  -20.8 °C 1014.4 in /  34347.6 hPa Calm     89 % 0.0 in /  0 mm 0.0 W/m2 CLR
06:14 -3.9 °F /  -19.9 °C -5.4 °F /  -20.8 °C 1014.8 in /  34361.1 hPa Calm     89 % 0.0 in /  0 mm 0.0 W/m2 CLR
06:19 -3.9 °F /  -19.9 °C -5.4 °F /  -20.8 °C 1014.4 in /  34347.6 hPa Calm     89 % 0.0 in /  0 mm 0.0 W/m2 CLR
06:24 -4.4 °F /  -20.2 °C -5.8 °F /  -21 °C 1014.8 in /  34361.1 hPa Calm     90 % 0.0 in /  0 mm 0.0 W/m2 CLR
06:29 -3.9 °F /  -19.9 °C -5.4 °F /  -20.8 °C 1014.8 in /  34361.1 hPa Calm     89 % 0.0 in /  0 mm 0.0 W/m2 CLR
06:34 -4.4 °F /  -20.2 °C -6.0 °F /  -21.1 °C 1014.8 in /  34361.1 hPa Calm     89 % 0.0 in /  0 mm 0.0 W/m2 CLR
06:39 -4.4 °F /  -20.2 °C -6.0 °F /  -21.1 °C 1014.8 in /  34361.1 hPa Calm     89 % 0.0 in /  0 mm 0.0 W/m2 CLR
06:44 -4.4 °F /  -20.2 °C -6.0 °F /  -21.1 °C 1014.8 in /  34361.1 hPa Calm     89 % 0.0 in /  0 mm 0.0 W/m2 CLR
06:49 -4.4 °F /  -20.2 °C -6.0 °F /  -21.1 °C 1014.8 in /  34361.1 hPa Calm     89 % 0.0 in /  0 mm 0.0 W/m2 CLR
06:54 -3.9 °F /  -19.9 °C -5.4 °F /  -20.8 °C 1014.8 in /  34361.1 hPa Calm     89 % 0.0 in /  0 mm 0.0 W/m2 CLR
06:59 -3.9 °F /  -19.9 °C -5.4 °F /  -20.8 °C 1014.8 in /  34361.1 hPa Calm     89 % 0.0 in /  0 mm 0.0 W/m2 CLR
07:04 -3.9 °F /  -19.9 °C -5.4 °F /  -20.8 °C 1014.8 in /  34361.1 hPa Calm     89 % 0.0 in /  0 mm 0.0 W/m2 CLR
07:09 -3.9 °F /  -19.9 °C -5.4 °F /  -20.8 °C 1014.8 in /  34361.1 hPa Calm     89 % 0.0 in /  0 mm 0.0 W/m2 CLR
07:14 -3.9 °F /  -19.9 °C -5.4 °F /  -20.8 °C 1014.8 in /  34361.1 hPa Calm     89 % 0.0 in /  0 mm 0.0 W/m2 CLR
07:19 -3.9 °F /  -19.9 °C -5.4 °F /  -20.8 °C 1014.8 in /  34361.1 hPa Calm     89 % 0.0 in /  0 mm 0.0 W/m2 CLR
07:24 -3.9 °F /  -19.9 °C -5.4 °F /  -20.8 °C 1014.8 in /  34361.1 hPa Calm     89 % 0.0 in /  0 mm 0.0 W/m2 CLR
07:29 -4.4 °F /  -20.2 °C -6.0 °F /  -21.1 °C 1014.8 in /  34361.1 hPa Calm     89 % 0.0 in /  0 mm 0.0 W/m2 CLR
07:30 -3.9 °F /  -19.9 °C -5.4 °F /  -20.8 °C 1014.8 in /  34361.1 hPa Calm     89 % 0.0 in /  0 mm 0.0 W/m2 CLR
07:35 -3.9 °F /  -19.9 °C -5.4 °F /  -20.8 °C 1014.8 in /  34361.1 hPa Calm     89 % 0.0 in /  0 mm 0.0 W/m2 OVC
07:40 -4.4 °F /  -20.2 °C -5.8 °F /  -21 °C 1014.8 in /  34361.1 hPa Calm     90 % 0.0 in /  0 mm 0.0 W/m2 OVC
07:45 -4.4 °F /  -20.2 °C -6.0 °F /  -21.1 °C 1014.8 in /  34361.1 hPa Calm     89 % 0.0 in /  0 mm 7.0 W/m2 BKN
07:50 -4.4 °F /  -20.2 °C -5.8 °F /  -21 °C 1014.8 in /  34361.1 hPa Calm     90 % 0.0 in /  0 mm 11.0 W/m2 BKN
07:55 -4.4 °F /  -20.2 °C -6.0 °F /  -21.1 °C 1014.8 in /  34361.1 hPa Calm     89 % 0.0 in /  0 mm 14.0 W/m2 BKN
08:00 -4.4 °F /  -20.2 °C -6.0 °F /  -21.1 °C 1014.8 in /  34361.1 hPa Calm     89 % 0.0 in /  0 mm 18.0 W/m2 BKN
08:05 -4.4 °F /  -20.2 °C -6.0 °F /  -21.1 °C 1014.8 in /  34361.1 hPa Calm     89 % 0.0 in /  0 mm 21.0 W/m2 BKN
08:10 -4.4 °F /  -20.2 °C -6.0 °F /  -21.1 °C 1014.8 in /  34361.1 hPa Calm     89 % 0.0 in /  0 mm 28.0 W/m2 BKN
08:15 -3.9 °F /  -19.9 °C -5.4 °F /  -20.8 °C 1014.8 in /  34361.1 hPa Calm     89 % 0.0 in /  0 mm 35.0 W/m2 BKN
08:20 -3.9 °F /  -19.9 °C -5.3 °F /  -20.7 °C 1014.8 in /  34361.1 hPa Calm     90 % 0.0 in /  0 mm 47.0 W/m2 SCT
08:25 -3.9 °F /  -19.9 °C -5.4 °F /  -20.8 °C 1014.8 in /  34361.1 hPa Calm     89 % 0.0 in /  0 mm 54.0 W/m2 SCT
08:30 -3.3 °F /  -19.6 °C -4.9 °F /  -20.5 °C 1015.1 in /  34371.3 hPa Calm     89 % 0.0 in /  0 mm 76.0 W/m2 FEW
08:35 -3.3 °F /  -19.6 °C -4.9 °F /  -20.5 °C 1015.1 in /  34371.3 hPa Calm     89 % 0.0 in /  0 mm 90.0 W/m2 CLR
08:40 -3.3 °F /  -19.6 °C -4.9 °F /  -20.5 °C 1015.1 in /  34371.3 hPa Calm     89 % 0.0 in /  0 mm 107.0 W/m2 CLR
08:45 -2.8 °F /  -19.3 °C -4.3 °F /  -20.2 °C 1015.5 in /  34384.8 hPa Calm     89 % 0.0 in /  0 mm 132.0 W/m2 CLR
08:50 -2.8 °F /  -19.3 °C -4.3 °F /  -20.2 °C 1015.1 in /  34371.3 hPa Calm     89 % 0.0 in /  0 mm 127.0 W/m2 CLR
08:55 -2.2 °F /  -19 °C -3.8 °F /  -19.9 °C 1015.5 in /  34384.8 hPa Calm     89 % 0.0 in /  0 mm 142.0 W/m2 CLR
09:00 -2.2 °F /  -19 °C -3.9 °F /  -19.9 °C 1015.5 in /  34384.8 hPa Calm     88 % 0.0 in /  0 mm 116.0 W/m2 CLR
09:05 -1.7 °F /  -18.7 °C -3.4 °F /  -19.7 °C 1015.5 in /  34384.8 hPa Calm     88 % 0.0 in /  0 mm 172.0 W/m2 CLR
09:10 -1.7 °F /  -18.7 °C -3.6 °F /  -19.8 °C 1015.1 in /  34371.3 hPa Calm     87 % 0.0 in /  0 mm 188.0 W/m2 CLR
09:15 -1.1 °F /  -18.4 °C -3.3 °F /  -19.6 °C 1015.5 in /  34384.8 hPa Calm     85 % 0.0 in /  0 mm 202.0 W/m2 CLR
09:20 -0.6 °F /  -18.1 °C -2.8 °F /  -19.3 °C 1015.5 in /  34384.8 hPa Calm     85 % 0.0 in /  0 mm 214.0 W/m2 CLR
09:25 -0.6 °F /  -18.1 °C -2.8 °F /  -19.3 °C 1015.5 in /  34384.8 hPa Calm     85 % 0.0 in /  0 mm 230.0 W/m2 CLR
09:30 -0.6 °F /  -18.1 °C -3.3 °F /  -19.6 °C 1015.5 in /  34384.8 hPa Calm     82 % 0.0 in /  0 mm 246.0 W/m2 CLR
09:35 0.0 °F /  -17.8 °C -3.1 °F /  -19.5 °C 1015.5 in /  34384.8 hPa Calm     80 % 0.0 in /  0 mm 262.0 W/m2 CLR
09:40 0.6 °F /  -17.4 °C -2.8 °F /  -19.3 °C 1015.1 in /  34371.3 hPa Calm     78 % 0.0 in /  0 mm 279.0 W/m2 CLR
09:45 1.7 °F /  -16.8 °C -1.9 °F /  -18.8 °C 1015.5 in /  34384.8 hPa Calm     77 % 0.0 in /  0 mm 297.0 W/m2 CLR
09:50 2.8 °F /  -16.2 °C -1.1 °F /  -18.4 °C 1015.5 in /  34384.8 hPa Calm     76 % 0.0 in /  0 mm 315.0 W/m2 CLR
09:55 3.3 °F /  -15.9 °C -0.7 °F /  -18.2 °C 1015.5 in /  34384.8 hPa Calm     75 % 0.0 in /  0 mm 329.0 W/m2 CLR
10:00 3.9 °F /  -15.6 °C -1.5 °F /  -18.6 °C 1015.5 in /  34384.8 hPa WNW 18.5 mph /  29.8 km/h 18.5 mph /  29.8 km/h 68 % 0.0 in /  0 mm 348.0 W/m2 CLR
10:05 4.4 °F /  -15.3 °C -1.3 °F /  -18.5 °C 1015.5 in /  34384.8 hPa NW 6.4 mph /  10.3 km/h 6.4 mph /  10.3 km/h 66 % 0.0 in /  0 mm 364.0 W/m2 CLR
10:10 5.0 °F /  -15 °C -1.4 °F /  -18.6 °C 1015.5 in /  34384.8 hPa NW 14.8 mph /  23.8 km/h 14.8 mph /  23.8 km/h 63 % 0.0 in /  0 mm 376.0 W/m2 CLR
10:15 5.6 °F /  -14.7 °C -0.9 °F /  -18.3 °C 1015.5 in /  34384.8 hPa NNW 18.5 mph /  29.8 km/h 18.5 mph /  29.8 km/h 63 % 0.0 in /  0 mm 388.0 W/m2 CLR
10:20 6.1 °F /  -14.4 °C -0.6 °F /  -18.1 °C 1015.5 in /  34384.8 hPa NNW 8.0 mph /  12.9 km/h 8.0 mph /  12.9 km/h 62 % 0.0 in /  0 mm 403.0 W/m2 CLR
10:25 6.7 °F /  -14.1 °C -0.3 °F /  -17.9 °C 1015.5 in /  34384.8 hPa NW 16.7 mph /  26.9 km/h 16.7 mph /  26.9 km/h 61 % 0.0 in /  0 mm 417.0 W/m2 CLR
10:30 7.2 °F /  -13.8 °C 0.2 °F /  -17.7 °C 1015.5 in /  34384.8 hPa NW 16.7 mph /  26.9 km/h 16.7 mph /  26.9 km/h 61 % 0.0 in /  0 mm 431.0 W/m2 CLR
10:35 7.2 °F /  -13.8 °C -0.1 °F /  -17.8 °C 1015.5 in /  34384.8 hPa NNW 18.5 mph /  29.8 km/h 18.5 mph /  29.8 km/h 60 % 0.0 in /  0 mm 445.0 W/m2 CLR
10:40 7.2 °F /  -13.8 °C -0.1 °F /  -17.8 °C 1015.5 in /  34384.8 hPa NNW 14.8 mph /  23.8 km/h 14.8 mph /  23.8 km/h 60 % 0.0 in /  0 mm 457.0 W/m2 CLR
10:45 7.8 °F /  -13.4 °C 0.0 °F /  -17.8 °C 1015.5 in /  34384.8 hPa NW 14.8 mph /  23.8 km/h 14.8 mph /  23.8 km/h 58 % 0.0 in /  0 mm 468.0 W/m2 CLR
10:50 7.8 °F /  -13.4 °C 0.3 °F /  -17.6 °C 1015.5 in /  34384.8 hPa NW 11.1 mph /  17.9 km/h 11.1 mph /  17.9 km/h 59 % 0.0 in /  0 mm 480.0 W/m2 CLR
10:55 8.3 °F /  -13.2 °C 0.6 °F /  -17.4 °C 1015.5 in /  34384.8 hPa NNW 16.7 mph /  26.9 km/h 16.7 mph /  26.9 km/h 58 % 0.0 in /  0 mm 490.0 W/m2 CLR
11:00 8.3 °F /  -13.2 °C 0.6 °F /  -17.4 °C 1015.5 in /  34384.8 hPa NNW 16.1 mph /  25.9 km/h 16.1 mph /  25.9 km/h 58 % 0.0 in /  0 mm 501.0 W/m2 CLR
11:05 8.3 °F /  -13.2 °C 0.6 °F /  -17.4 °C 1015.5 in /  34384.8 hPa North 18.5 mph /  29.8 km/h 18.5 mph /  29.8 km/h 58 % 0.0 in /  0 mm 513.0 W/m2 CLR
11:10 8.9 °F /  -12.8 °C 0.8 °F /  -17.3 °C 1015.5 in /  34384.8 hPa NNW 18.5 mph /  29.8 km/h 18.5 mph /  29.8 km/h 57 % 0.0 in /  0 mm 524.0 W/m2 CLR
11:15 8.9 °F /  -12.8 °C 0.8 °F /  -17.3 °C 1015.5 in /  34384.8 hPa North 16.7 mph /  26.9 km/h 16.7 mph /  26.9 km/h 57 % 0.0 in /  0 mm 534.0 W/m2 CLR
11:20 9.4 °F /  -12.6 °C 0.8 °F /  -17.3 °C 1015.5 in /  34384.8 hPa North 18.5 mph /  29.8 km/h 18.5 mph /  29.8 km/h 55 % 0.0 in /  0 mm 541.0 W/m2 CLR
11:25 10.0 °F /  -12.2 °C 1.4 °F /  -17 °C 1015.5 in /  34384.8 hPa North 22.2 mph /  35.7 km/h 22.2 mph /  35.7 km/h 55 % 0.0 in /  0 mm 552.0 W/m2 CLR
11:30 10.0 °F /  -12.2 °C 1.4 °F /  -17 °C 1015.5 in /  34384.8 hPa NNW 16.7 mph /  26.9 km/h 16.7 mph /  26.9 km/h 55 % 0.0 in /  0 mm 564.0 W/m2 CLR
11:35 10.0 °F /  -12.2 °C 1.1 °F /  -17.2 °C 1015.5 in /  34384.8 hPa NNW 18.5 mph /  29.8 km/h 18.5 mph /  29.8 km/h 54 % 0.0 in /  0 mm 573.0 W/m2 CLR
11:40 10.0 °F /  -12.2 °C 0.8 °F /  -17.3 °C 1015.5 in /  34384.8 hPa North 18.5 mph /  29.8 km/h 18.5 mph /  29.8 km/h 53 % 0.0 in /  0 mm 582.0 W/m2 CLR
11:45 10.6 °F /  -11.9 °C 1.6 °F /  -16.9 °C 1015.5 in /  34384.8 hPa NNW 17.7 mph /  28.5 km/h 17.7 mph /  28.5 km/h 54 % 0.0 in /  0 mm 587.0 W/m2 CLR
11:51 10.6 °F /  -11.9 °C 1.4 °F /  -17 °C 1015.5 in /  34384.8 hPa NNW 19.3 mph /  31.1 km/h 19.3 mph /  31.1 km/h 53 % 0.0 in /  0 mm 596.0 W/m2 CLR
11:56 10.6 °F /  -11.9 °C 1.4 °F /  -17 °C 1015.5 in /  34384.8 hPa NNW 17.7 mph /  28.5 km/h 17.7 mph /  28.5 km/h 53 % 0.0 in /  0 mm 601.0 W/m2 CLR
12:01 10.6 °F /  -11.9 °C 1.4 °F /  -17 °C 1015.5 in /  34384.8 hPa NW 18.5 mph /  29.8 km/h 18.5 mph /  29.8 km/h 53 % 0.0 in /  0 mm 610.0 W/m2 CLR
12:06 10.6 °F /  -11.9 °C 0.8 °F /  -17.3 °C 1015.5 in /  34384.8 hPa NNW 18.5 mph /  29.8 km/h 18.5 mph /  29.8 km/h 51 % 0.0 in /  0 mm 612.0 W/m2 CLR
12:11 10.6 °F /  -11.9 °C 1.1 °F /  -17.2 °C 1015.5 in /  34384.8 hPa NW 11.1 mph /  17.9 km/h 11.1 mph /  17.9 km/h 52 % 0.0 in /  0 mm 621.0 W/m2 CLR
12:16 10.6 °F /  -11.9 °C 1.1 °F /  -17.2 °C 1015.5 in /  34384.8 hPa North 18.5 mph /  29.8 km/h 18.5 mph /  29.8 km/h 52 % 0.0 in /  0 mm 624.0 W/m2 CLR
12:21 11.1 °F /  -11.6 °C 0.8 °F /  -17.3 °C 1015.5 in /  34384.8 hPa NW 7.4 mph /  11.9 km/h 7.4 mph /  11.9 km/h 49 % 0.0 in /  0 mm 631.0 W/m2 CLR
12:26 11.1 °F /  -11.6 °C 0.8 °F /  -17.3 °C 1015.1 in /  34371.3 hPa NNW 16.7 mph /  26.9 km/h 16.7 mph /  26.9 km/h 49 % 0.0 in /  0 mm 635.0 W/m2 CLR
12:31 11.1 °F /  -11.6 °C 0.8 °F /  -17.3 °C 1015.1 in /  34371.3 hPa NNW 14.8 mph /  23.8 km/h 14.8 mph /  23.8 km/h 49 % 0.0 in /  0 mm 638.0 W/m2 CLR
12:36 11.7 °F /  -11.3 °C 1.3 °F /  -17.1 °C 1015.1 in /  34371.3 hPa Calm     49 % 0.0 in /  0 mm 643.0 W/m2 CLR
12:41 11.7 °F /  -11.3 °C 1.6 °F /  -16.9 °C 1015.1 in /  34371.3 hPa NNE 3.7 mph /  6 km/h 3.7 mph /  6 km/h 50 % 0.0 in /  0 mm 649.0 W/m2 CLR
12:46 11.7 °F /  -11.3 °C 1.3 °F /  -17.1 °C 1015.1 in /  34371.3 hPa North 18.5 mph /  29.8 km/h 18.5 mph /  29.8 km/h 49 % 0.0 in /  0 mm 654.0 W/m2 CLR
12:51 11.7 °F /  -11.3 °C 1.6 °F /  -16.9 °C 1015.1 in /  34371.3 hPa NNE 7.4 mph /  11.9 km/h 7.4 mph /  11.9 km/h 50 % 0.0 in /  0 mm 659.0 W/m2 CLR
12:56 11.1 °F /  -11.6 °C 1.1 °F /  -17.2 °C 1014.8 in /  34361.1 hPa North 14.8 mph /  23.8 km/h 14.8 mph /  23.8 km/h 50 % 0.0 in /  0 mm 650.0 W/m2 CLR
13:01 11.1 °F /  -11.6 °C 1.1 °F /  -17.2 °C 1014.8 in /  34361.1 hPa North 14.8 mph /  23.8 km/h 14.8 mph /  23.8 km/h 50 % 0.0 in /  0 mm 663.0 W/m2 CLR
13:06 11.7 °F /  -11.3 °C 1.0 °F /  -17.2 °C 1014.8 in /  34361.1 hPa NNE 18.5 mph /  29.8 km/h 18.5 mph /  29.8 km/h 48 % 0.0 in /  0 mm 659.0 W/m2 CLR
13:11 12.2 °F /  -11 °C 1.5 °F /  -16.9 °C 1014.8 in /  34361.1 hPa North 16.7 mph /  26.9 km/h 16.7 mph /  26.9 km/h 48 % 0.0 in /  0 mm 659.0 W/m2 CLR
13:16 12.8 °F /  -10.7 °C 1.4 °F /  -17 °C 1014.4 in /  34347.6 hPa WNW 13.0 mph /  20.9 km/h 13.0 mph /  20.9 km/h 46 % 0.0 in /  0 mm 664.0 W/m2 CLR
13:21 12.2 °F /  -11 °C 0.6 °F /  -17.4 °C 1014.4 in /  34347.6 hPa NNW 13.0 mph /  20.9 km/h 13.0 mph /  20.9 km/h 45 % 0.0 in /  0 mm 663.0 W/m2 CLR
13:26 12.2 °F /  -11 °C 0.6 °F /  -17.4 °C 1014.4 in /  34347.6 hPa NNW 20.4 mph /  32.8 km/h 20.4 mph /  32.8 km/h 45 % 0.0 in /  0 mm 661.0 W/m2 CLR
13:31 12.8 °F /  -10.7 °C 0.8 °F /  -17.3 °C 1014.4 in /  34347.6 hPa North 14.8 mph /  23.8 km/h 14.8 mph /  23.8 km/h 44 % 0.0 in /  0 mm 659.0 W/m2 CLR
13:36 12.8 °F /  -10.7 °C 1.1 °F /  -17.2 °C 1014.1 in /  34337.4 hPa North 18.5 mph /  29.8 km/h 18.5 mph /  29.8 km/h 45 % 0.0 in /  0 mm 663.0 W/m2 CLR
13:41 12.8 °F /  -10.7 °C 0.8 °F /  -17.3 °C 1014.1 in /  34337.4 hPa North 9.3 mph /  15 km/h 9.3 mph /  15 km/h 44 % 0.0 in /  0 mm 659.0 W/m2 CLR
13:46 12.8 °F /  -10.7 °C 1.1 °F /  -17.2 °C 1014.1 in /  34337.4 hPa NNE 13.0 mph /  20.9 km/h 13.0 mph /  20.9 km/h 45 % 0.0 in /  0 mm 664.0 W/m2 CLR
13:51 12.8 °F /  -10.7 °C 0.8 °F /  -17.3 °C 1014.1 in /  34337.4 hPa NW 11.3 mph /  18.2 km/h 11.3 mph /  18.2 km/h 44 % 0.0 in /  0 mm 654.0 W/m2 CLR
13:56 12.8 °F /  -10.7 °C 0.2 °F /  -17.7 °C 1013.8 in /  34327.3 hPa North 16.1 mph /  25.9 km/h 16.1 mph /  25.9 km/h 42 % 0.0 in /  0 mm 652.0 W/m2 CLR
14:01 12.8 °F /  -10.7 °C 0.2 °F /  -17.7 °C 1013.8 in /  34327.3 hPa NW 14.8 mph /  23.8 km/h 14.8 mph /  23.8 km/h 42 % 0.0 in /  0 mm 656.0 W/m2 CLR
14:06 12.8 °F /  -10.7 °C -0.5 °F /  -18.1 °C 1013.8 in /  34327.3 hPa NNW 16.7 mph /  26.9 km/h 16.7 mph /  26.9 km/h 40 % 0.0 in /  0 mm 645.0 W/m2 CLR
14:11 13.3 °F /  -10.4 °C 0.3 °F /  -17.6 °C 1013.8 in /  34327.3 hPa NNW 1.9 mph /  3.1 km/h 1.9 mph /  3.1 km/h 41 % 0.0 in /  0 mm 640.0 W/m2 CLR
14:16 13.9 °F /  -10.1 °C 0.5 °F /  -17.5 °C 1013.8 in /  34327.3 hPa North 18.5 mph /  29.8 km/h 18.5 mph /  29.8 km/h 40 % 0.0 in /  0 mm 633.0 W/m2 CLR
14:21 13.9 °F /  -10.1 °C 0.2 °F /  -17.7 °C 1013.8 in /  34327.3 hPa North 16.7 mph /  26.9 km/h 16.7 mph /  26.9 km/h 39 % 0.0 in /  0 mm 633.0 W/m2 CLR
14:26 13.9 °F /  -10.1 °C 0.2 °F /  -17.7 °C 1013.8 in /  34327.3 hPa NNW 14.8 mph /  23.8 km/h 14.8 mph /  23.8 km/h 39 % 0.0 in /  0 mm 624.0 W/m2 CLR
14:31 13.9 °F /  -10.1 °C 0.5 °F /  -17.5 °C 1013.4 in /  34313.7 hPa NNW 16.7 mph /  26.9 km/h 16.7 mph /  26.9 km/h 40 % 0.0 in /  0 mm 613.0 W/m2 CLR
14:36 13.9 °F /  -10.1 °C 0.2 °F /  -17.7 °C 1013.4 in /  34313.7 hPa NNW 13.0 mph /  20.9 km/h 13.0 mph /  20.9 km/h 39 % 0.0 in /  0 mm 612.0 W/m2 CLR
14:41 13.9 °F /  -10.1 °C 0.5 °F /  -17.5 °C 1013.4 in /  34313.7 hPa NNE 16.1 mph /  25.9 km/h 16.1 mph /  25.9 km/h 40 % 0.0 in /  0 mm 605.0 W/m2 CLR
14:46 13.3 °F /  -10.4 °C -0.3 °F /  -17.9 °C 1013.4 in /  34313.7 hPa North 18.5 mph /  29.8 km/h 18.5 mph /  29.8 km/h 39 % 0.0 in /  0 mm 596.0 W/m2 CLR
14:51 13.9 °F /  -10.1 °C 0.5 °F /  -17.5 °C 1013.4 in /  34313.7 hPa North 18.5 mph /  29.8 km/h 18.5 mph /  29.8 km/h 40 % 0.0 in /  0 mm 587.0 W/m2 CLR
14:56 13.9 °F /  -10.1 °C 0.5 °F /  -17.5 °C 1013.4 in /  34313.7 hPa NE 11.1 mph /  17.9 km/h 11.1 mph /  17.9 km/h 40 % 0.0 in /  0 mm 580.0 W/m2 CLR
15:01 13.9 °F /  -10.1 °C 0.8 °F /  -17.3 °C 1013.4 in /  34313.7 hPa NNW 18.5 mph /  29.8 km/h 18.5 mph /  29.8 km/h 41 % 0.0 in /  0 mm 570.0 W/m2 CLR
15:06 13.9 °F /  -10.1 °C 0.5 °F /  -17.5 °C 1013.4 in /  34313.7 hPa NE 13.0 mph /  20.9 km/h 13.0 mph /  20.9 km/h 40 % 0.0 in /  0 mm 555.0 W/m2 CLR
15:11 13.3 °F /  -10.4 °C 0.3 °F /  -17.6 °C 1013.4 in /  34313.7 hPa NNE 1.9 mph /  3.1 km/h 1.9 mph /  3.1 km/h 41 % 0.0 in /  0 mm 541.0 W/m2 CLR
15:16 13.3 °F /  -10.4 °C 0.3 °F /  -17.6 °C 1013.1 in /  34303.6 hPa NNE 18.5 mph /  29.8 km/h 18.5 mph /  29.8 km/h 41 % 0.0 in /  0 mm 538.0 W/m2 CLR
15:21 13.3 °F /  -10.4 °C 0.3 °F /  -17.6 °C 1013.1 in /  34303.6 hPa NNW 14.8 mph /  23.8 km/h 14.8 mph /  23.8 km/h 41 % 0.0 in /  0 mm 527.0 W/m2 CLR
15:26 13.3 °F /  -10.4 °C 0.0 °F /  -17.8 °C 1013.1 in /  34303.6 hPa ENE 1.9 mph /  3.1 km/h 1.9 mph /  3.1 km/h 40 % 0.0 in /  0 mm 515.0 W/m2 CLR
15:31 13.9 °F /  -10.1 °C 0.5 °F /  -17.5 °C 1013.1 in /  34303.6 hPa ENE 1.9 mph /  3.1 km/h 1.9 mph /  3.1 km/h 40 % 0.0 in /  0 mm 504.0 W/m2 CLR
15:36 13.3 °F /  -10.4 °C 0.0 °F /  -17.8 °C 1013.1 in /  34303.6 hPa North 20.4 mph /  32.8 km/h 20.4 mph /  32.8 km/h 40 % 0.0 in /  0 mm 499.0 W/m2 CLR
15:41 13.9 °F /  -10.1 °C 0.2 °F /  -17.7 °C 1013.1 in /  34303.6 hPa NNE 16.7 mph /  26.9 km/h 16.7 mph /  26.9 km/h 39 % 0.0 in /  0 mm 480.0 W/m2 CLR
15:46 13.9 °F /  -10.1 °C 0.5 °F /  -17.5 °C 1013.1 in /  34303.6 hPa NNE 18.5 mph /  29.8 km/h 18.5 mph /  29.8 km/h 40 % 0.0 in /  0 mm 475.0 W/m2 CLR
15:51 13.9 °F /  -10.1 °C 0.2 °F /  -17.7 °C 1013.1 in /  34303.6 hPa North 11.1 mph /  17.9 km/h 11.1 mph /  17.9 km/h 39 % 0.0 in /  0 mm 455.0 W/m2 CLR
15:56 13.9 °F /  -10.1 °C 0.2 °F /  -17.7 °C 1013.1 in /  34303.6 hPa North 18.5 mph /  29.8 km/h 18.5 mph /  29.8 km/h 39 % 0.0 in /  0 mm 448.0 W/m2 CLR
16:01 13.9 °F /  -10.1 °C -0.6 °F /  -18.1 °C 1013.1 in /  34303.6 hPa North 20.4 mph /  32.8 km/h 20.4 mph /  32.8 km/h 37 % 0.0 in /  0 mm 443.0 W/m2 CLR
16:06 14.4 °F /  -9.8 °C -0.1 °F /  -17.8 °C 1013.1 in /  34303.6 hPa North 22.2 mph /  35.7 km/h 22.2 mph /  35.7 km/h 37 % 0.0 in /  0 mm 424.0 W/m2 CLR
16:11 13.9 °F /  -10.1 °C -0.2 °F /  -17.9 °C 1013.1 in /  34303.6 hPa NNE 16.7 mph /  26.9 km/h 16.7 mph /  26.9 km/h 38 % 0.0 in /  0 mm 410.0 W/m2 CLR
16:16 14.4 °F /  -9.8 °C -0.1 °F /  -17.8 °C 1013.1 in /  34303.6 hPa North 20.9 mph /  33.6 km/h 20.9 mph /  33.6 km/h 37 % 0.0 in /  0 mm 401.0 W/m2 CLR
16:21 13.9 °F /  -10.1 °C -0.6 °F /  -18.1 °C 1013.1 in /  34303.6 hPa NNW 13.0 mph /  20.9 km/h 13.0 mph /  20.9 km/h 37 % 0.0 in /  0 mm 390.0 W/m2 CLR
16:26 13.9 °F /  -10.1 °C -0.9 °F /  -18.3 °C 1013.1 in /  34303.6 hPa North 18.5 mph /  29.8 km/h 18.5 mph /  29.8 km/h 36 % 0.0 in /  0 mm 373.0 W/m2 CLR
16:31 13.9 °F /  -10.1 °C -0.9 °F /  -18.3 °C 1013.1 in /  34303.6 hPa NNW 19.3 mph /  31.1 km/h 19.3 mph /  31.1 km/h 36 % 0.0 in /  0 mm 359.0 W/m2 CLR
16:36 13.9 °F /  -10.1 °C -0.9 °F /  -18.3 °C 1012.8 in /  34293.4 hPa NNW 20.4 mph /  32.8 km/h 20.4 mph /  32.8 km/h 36 % 0.0 in /  0 mm 345.0 W/m2 CLR
16:41 13.9 °F /  -10.1 °C -0.9 °F /  -18.3 °C 1012.8 in /  34293.4 hPa North 5.6 mph /  9 km/h 5.6 mph /  9 km/h 36 % 0.0 in /  0 mm 330.0 W/m2 CLR
16:46 13.9 °F /  -10.1 °C -0.9 °F /  -18.3 °C 1012.8 in /  34293.4 hPa North 20.4 mph /  32.8 km/h 20.4 mph /  32.8 km/h 36 % 0.0 in /  0 mm 316.0 W/m2 CLR
16:51 13.9 °F /  -10.1 °C -0.9 °F /  -18.3 °C 1012.8 in /  34293.4 hPa North 18.5 mph /  29.8 km/h 18.5 mph /  29.8 km/h 36 % 0.0 in /  0 mm 301.0 W/m2 CLR
16:56 13.9 °F /  -10.1 °C -0.9 °F /  -18.3 °C 1012.8 in /  34293.4 hPa NNE 16.1 mph /  25.9 km/h 16.1 mph /  25.9 km/h 36 % 0.0 in /  0 mm 285.0 W/m2 CLR
17:01 13.9 °F /  -10.1 °C -0.9 °F /  -18.3 °C 1012.8 in /  34293.4 hPa North 18.5 mph /  29.8 km/h 18.5 mph /  29.8 km/h 36 % 0.0 in /  0 mm 267.0 W/m2 CLR
17:06 13.9 °F /  -10.1 °C -0.9 °F /  -18.3 °C 1012.8 in /  34293.4 hPa NNE 18.5 mph /  29.8 km/h 18.5 mph /  29.8 km/h 36 % 0.0 in /  0 mm 251.0 W/m2 CLR
17:11 13.3 °F /  -10.4 °C -1.8 °F /  -18.8 °C 1012.8 in /  34293.4 hPa NNE 18.5 mph /  29.8 km/h 18.5 mph /  29.8 km/h 35 % 0.0 in /  0 mm 232.0 W/m2 CLR
17:16 13.3 °F /  -10.4 °C -1.4 °F /  -18.6 °C 1012.8 in /  34293.4 hPa NNW 13.0 mph /  20.9 km/h 13.0 mph /  20.9 km/h 36 % 0.0 in /  0 mm 216.0 W/m2 CLR
17:21 13.3 °F /  -10.4 °C -1.4 °F /  -18.6 °C 1012.8 in /  34293.4 hPa North 13.0 mph /  20.9 km/h 13.0 mph /  20.9 km/h 36 % 0.0 in /  0 mm 199.0 W/m2 CLR
17:26 12.8 °F /  -10.7 °C -1.9 °F /  -18.8 °C 1012.8 in /  34293.4 hPa NNW 16.7 mph /  26.9 km/h 16.7 mph /  26.9 km/h 36 % 0.0 in /  0 mm 181.0 W/m2 CLR
17:31 12.8 °F /  -10.7 °C -2.3 °F /  -19.1 °C 1012.8 in /  34293.4 hPa NNW 11.1 mph /  17.9 km/h 11.1 mph /  17.9 km/h 35 % 0.0 in /  0 mm 163.0 W/m2 CLR
17:36 12.8 °F /  -10.7 °C -2.3 °F /  -19.1 °C 1012.8 in /  34293.4 hPa North 11.1 mph /  17.9 km/h 11.1 mph /  17.9 km/h 35 % 0.0 in /  0 mm 142.0 W/m2 CLR
17:41 12.2 °F /  -11 °C -2.8 °F /  -19.3 °C 1012.8 in /  34293.4 hPa North 1.9 mph /  3.1 km/h 1.9 mph /  3.1 km/h 35 % 0.0 in /  0 mm 128.0 W/m2 CLR
17:46 12.2 °F /  -11 °C -2.8 °F /  -19.3 °C 1012.4 in /  34279.9 hPa NW 5.6 mph /  9 km/h 5.6 mph /  9 km/h 35 % 0.0 in /  0 mm 114.0 W/m2 CLR
17:51 12.2 °F /  -11 °C -2.8 °F /  -19.3 °C 1012.4 in /  34279.9 hPa NW 1.9 mph /  3.1 km/h 1.9 mph /  3.1 km/h 35 % 0.0 in /  0 mm 97.0 W/m2 CLR
17:56 12.2 °F /  -11 °C -2.8 °F /  -19.3 °C 1012.4 in /  34279.9 hPa NW 1.9 mph /  3.1 km/h   35 % 0.0 in /  0 mm 79.0 W/m2 FEW
18:01 12.2 °F /  -11 °C -2.8 °F /  -19.3 °C 1012.4 in /  34279.9 hPa Calm     35 % 0.0 in /  0 mm 62.0 W/m2 SCT
18:06 11.7 °F /  -11.3 °C -2.9 °F /  -19.4 °C 1012.8 in /  34293.4 hPa NNW 1.9 mph /  3.1 km/h   36 % 0.0 in /  0 mm 53.0 W/m2 SCT
18:11 11.7 °F /  -11.3 °C -3.3 °F /  -19.6 °C 1012.4 in /  34279.9 hPa Calm     35 % 0.0 in /  0 mm 39.0 W/m2 BKN
18:16 11.7 °F /  -11.3 °C -3.3 °F /  -19.6 °C 1012.4 in /  34279.9 hPa Calm     35 % 0.0 in /  0 mm 28.0 W/m2 BKN
18:21 10.6 °F /  -11.9 °C -3.9 °F /  -19.9 °C 1012.8 in /  34293.4 hPa Calm     36 % 0.0 in /  0 mm 21.0 W/m2 BKN
18:26 10.6 °F /  -11.9 °C -3.9 °F /  -19.9 °C 1012.4 in /  34279.9 hPa Calm     36 % 0.0 in /  0 mm 16.0 W/m2 BKN
18:31 10.0 °F /  -12.2 °C -4.1 °F /  -20.1 °C 1012.8 in /  34293.4 hPa Calm     37 % 0.0 in /  0 mm 12.0 W/m2 BKN
18:36 8.9 °F /  -12.8 °C -4.3 °F /  -20.2 °C 1012.8 in /  34293.4 hPa Calm     39 % 0.0 in /  0 mm 11.0 W/m2 BKN
18:41 8.3 °F /  -13.2 °C -4.8 °F /  -20.4 °C 1012.4 in /  34279.9 hPa Calm     39 % 0.0 in /  0 mm 7.0 W/m2 BKN
18:46 7.8 °F /  -13.4 °C -5.0 °F /  -20.6 °C 1012.4 in /  34279.9 hPa Calm     40 % 0.0 in /  0 mm 5.0 W/m2 OVC
18:51 7.2 °F /  -13.8 °C -5.2 °F /  -20.7 °C 1012.4 in /  34279.9 hPa Calm     41 % 0.0 in /  0 mm 0.0 W/m2 OVC
18:56 7.2 °F /  -13.8 °C -4.8 °F /  -20.4 °C 1012.4 in /  34279.9 hPa Calm     42 % 0.0 in /  0 mm 0.0 W/m2 CLR
19:01 7.2 °F /  -13.8 °C -4.6 °F /  -20.3 °C 1012.4 in /  34279.9 hPa Calm     43 % 0.0 in /  0 mm 0.0 W/m2 CLR
19:06 6.7 °F /  -14.1 °C -5.1 °F /  -20.6 °C 1012.8 in /  34293.4 hPa Calm     43 % 0.0 in /  0 mm 0.0 W/m2 CLR
19:11 6.7 °F /  -14.1 °C -4.4 °F /  -20.2 °C 1012.8 in /  34293.4 hPa Calm     45 % 0.0 in /  0 mm 0.0 W/m2 CLR
19:16 6.1 °F /  -14.4 °C -4.9 °F /  -20.5 °C 1012.8 in /  34293.4 hPa Calm     45 % 0.0 in /  0 mm 0.0 W/m2 CLR
19:21 6.7 °F /  -14.1 °C -4.4 °F /  -20.2 °C 1012.8 in /  34293.4 hPa Calm     45 % 0.0 in /  0 mm 0.0 W/m2 CLR
19:26 6.7 °F /  -14.1 °C -3.9 °F /  -19.9 °C 1012.8 in /  34293.4 hPa Calm     47 % 0.0 in /  0 mm 0.0 W/m2 CLR
19:31 6.7 °F /  -14.1 °C -3.6 °F /  -19.8 °C 1012.8 in /  34293.4 hPa Calm     48 % 0.0 in /  0 mm 0.0 W/m2 CLR
19:36 6.1 °F /  -14.4 °C -3.8 °F /  -19.9 °C 1012.8 in /  34293.4 hPa Calm     49 % 0.0 in /  0 mm 0.0 W/m2 CLR
19:41 5.6 °F /  -14.7 °C -4.1 °F /  -20.1 °C 1012.8 in /  34293.4 hPa Calm     50 % 0.0 in /  0 mm 0.0 W/m2 CLR
19:47 5.0 °F /  -15 °C -4.6 °F /  -20.3 °C 1012.8 in /  34293.4 hPa Calm     50 % 0.0 in /  0 mm 0.0 W/m2 CLR
19:52 5.0 °F /  -15 °C -4.3 °F /  -20.2 °C 1012.8 in /  34293.4 hPa Calm     51 % 0.0 in /  0 mm 0.0 W/m2 CLR
19:57 3.9 °F /  -15.6 °C -5.3 °F /  -20.7 °C 1012.8 in /  34293.4 hPa Calm     51 % 0.0 in /  0 mm 0.0 W/m2 CLR
20:02 3.9 °F /  -15.6 °C -5.1 °F /  -20.6 °C 1012.8 in /  34293.4 hPa Calm     52 % 0.0 in /  0 mm 0.0 W/m2 CLR
20:07 3.3 °F /  -15.9 °C -5.3 °F /  -20.7 °C 1012.8 in /  34293.4 hPa Calm     53 % 0.0 in /  0 mm 0.0 W/m2 CLR
20:12 3.3 °F /  -15.9 °C -5.3 °F /  -20.7 °C 1012.8 in /  34293.4 hPa Calm     53 % 0.0 in /  0 mm 0.0 W/m2 CLR
20:17 2.8 °F /  -16.2 °C -5.9 °F /  -21.1 °C 1012.8 in /  34293.4 hPa Calm     53 % 0.0 in /  0 mm 0.0 W/m2 CLR
20:22 2.8 °F /  -16.2 °C -5.9 °F /  -21.1 °C 1012.4 in /  34279.9 hPa Calm     53 % 0.0 in /  0 mm 0.0 W/m2 CLR
20:27 2.2 °F /  -16.6 °C -6.4 °F /  -21.3 °C 1012.8 in /  34293.4 hPa Calm     53 % 0.0 in /  0 mm 0.0 W/m2 CLR
20:32 2.2 °F /  -16.6 °C -6.4 °F /  -21.3 °C 1012.8 in /  34293.4 hPa Calm     53 % 0.0 in /  0 mm 0.0 W/m2 CLR
20:37 2.2 °F /  -16.6 °C -6.2 °F /  -21.2 °C 1012.4 in /  34279.9 hPa Calm     54 % 0.0 in /  0 mm 0.0 W/m2 CLR
20:42 1.7 °F /  -16.8 °C -6.9 °F /  -21.6 °C 1012.8 in /  34293.4 hPa WNW 1.9 mph /  3.1 km/h 1.9 mph /  3.1 km/h 53 % 0.0 in /  0 mm 0.0 W/m2 CLR
20:47 1.7 °F /  -16.8 °C -7.2 °F /  -21.8 °C 1012.8 in /  34293.4 hPa Calm     52 % 0.0 in /  0 mm 0.0 W/m2 CLR
20:52 1.7 °F /  -16.8 °C -7.4 °F /  -21.9 °C 1012.8 in /  34293.4 hPa WNW 1.9 mph /  3.1 km/h 1.9 mph /  3.1 km/h 51 % 0.0 in /  0 mm 0.0 W/m2 CLR
20:57 1.7 °F /  -16.8 °C -7.4 °F /  -21.9 °C 1012.8 in /  34293.4 hPa West 1.9 mph /  3.1 km/h 1.9 mph /  3.1 km/h 51 % 0.0 in /  0 mm 0.0 W/m2 CLR
21:02 1.7 °F /  -16.8 °C -7.7 °F /  -22.1 °C 1012.8 in /  34293.4 hPa WNW 1.9 mph /  3.1 km/h 1.9 mph /  3.1 km/h 50 % 0.0 in /  0 mm 0.0 W/m2 CLR
21:07 1.1 °F /  -17.2 °C -8.4 °F /  -22.4 °C 1012.8 in /  34293.4 hPa Calm     49 % 0.0 in /  0 mm 0.0 W/m2 CLR
21:12 1.1 °F /  -17.2 °C -8.2 °F /  -22.3 °C 1012.8 in /  34293.4 hPa Calm     50 % 0.0 in /  0 mm 0.0 W/m2 CLR
21:17 1.1 °F /  -17.2 °C -7.9 °F /  -22.2 °C 1012.8 in /  34293.4 hPa WNW 1.9 mph /  3.1 km/h 1.9 mph /  3.1 km/h 51 % 0.0 in /  0 mm 0.0 W/m2 CLR
21:22 1.1 °F /  -17.2 °C -7.9 °F /  -22.2 °C 1012.8 in /  34293.4 hPa WNW 18.5 mph /  29.8 km/h 18.5 mph /  29.8 km/h 51 % 0.0 in /  0 mm 0.0 W/m2 CLR
21:27 1.1 °F /  -17.2 °C -8.4 °F /  -22.4 °C 1012.4 in /  34279.9 hPa WNW 16.1 mph /  25.9 km/h 16.1 mph /  25.9 km/h 49 % 0.0 in /  0 mm 0.0 W/m2 CLR
21:32 1.1 °F /  -17.2 °C -8.9 °F /  -22.7 °C 1012.4 in /  34279.9 hPa NW 13.0 mph /  20.9 km/h 13.0 mph /  20.9 km/h 47 % 0.0 in /  0 mm 0.0 W/m2 CLR
21:37 1.1 °F /  -17.2 °C -9.5 °F /  -23.1 °C 1012.8 in /  34293.4 hPa NW 16.7 mph /  26.9 km/h 16.7 mph /  26.9 km/h 45 % 0.0 in /  0 mm 0.0 W/m2 CLR
21:42 1.1 °F /  -17.2 °C -9.5 °F /  -23.1 °C 1012.4 in /  34279.9 hPa NW 16.7 mph /  26.9 km/h 16.7 mph /  26.9 km/h 45 % 0.0 in /  0 mm 0.0 W/m2 CLR
21:47 0.6 °F /  -17.4 °C -10.1 °F /  -23.4 °C 1012.4 in /  34279.9 hPa NW 14.8 mph /  23.8 km/h 14.8 mph /  23.8 km/h 45 % 0.0 in /  0 mm 0.0 W/m2 CLR
21:54 0.6 °F /  -17.4 °C -10.1 °F /  -23.4 °C 1012.4 in /  34279.9 hPa NW 16.7 mph /  26.9 km/h 16.7 mph /  26.9 km/h 45 % 0.0 in /  0 mm 0.0 W/m2 CLR
21:59 0.6 °F /  -17.4 °C -10.1 °F /  -23.4 °C 1012.8 in /  34293.4 hPa WNW 13.0 mph /  20.9 km/h 13.0 mph /  20.9 km/h 45 % 0.0 in /  0 mm 0.0 W/m2 CLR
22:04 0.6 °F /  -17.4 °C -10.3 °F /  -23.5 °C 1012.8 in /  34293.4 hPa NW 16.7 mph /  26.9 km/h 16.7 mph /  26.9 km/h 44 % 0.0 in /  0 mm 0.0 W/m2 CLR
22:09 0.0 °F /  -17.8 °C -10.8 °F /  -23.8 °C 1012.8 in /  34293.4 hPa NW 20.4 mph /  32.8 km/h 20.4 mph /  32.8 km/h 44 % 0.0 in /  0 mm 0.0 W/m2 CLR
22:14 0.0 °F /  -17.8 °C -10.8 °F /  -23.8 °C 1012.8 in /  34293.4 hPa NW 18.5 mph /  29.8 km/h 18.5 mph /  29.8 km/h 44 % 0.0 in /  0 mm 0.0 W/m2 CLR
22:19 0.6 °F /  -17.4 °C -10.1 °F /  -23.4 °C 1012.4 in /  34279.9 hPa NW 18.5 mph /  29.8 km/h 18.5 mph /  29.8 km/h 45 % 0.0 in /  0 mm 0.0 W/m2 CLR
22:24 0.6 °F /  -17.4 °C -10.1 °F /  -23.4 °C 1012.4 in /  34279.9 hPa NW 18.5 mph /  29.8 km/h 18.5 mph /  29.8 km/h 45 % 0.0 in /  0 mm 0.0 W/m2 CLR
22:29 0.6 °F /  -17.4 °C -10.1 °F /  -23.4 °C 1012.8 in /  34293.4 hPa NW 19.3 mph /  31.1 km/h 19.3 mph /  31.1 km/h 45 % 0.0 in /  0 mm 0.0 W/m2 CLR
22:34 1.1 °F /  -17.2 °C -9.5 °F /  -23.1 °C 1012.8 in /  34293.4 hPa WNW 16.7 mph /  26.9 km/h 16.7 mph /  26.9 km/h 45 % 0.0 in /  0 mm 0.0 W/m2 CLR
22:39 1.1 °F /  -17.2 °C -9.5 °F /  -23.1 °C 1012.8 in /  34293.4 hPa NW 16.7 mph /  26.9 km/h 16.7 mph /  26.9 km/h 45 % 0.0 in /  0 mm 0.0 W/m2 CLR
22:44 1.1 °F /  -17.2 °C -9.5 °F /  -23.1 °C 1012.8 in /  34293.4 hPa NW 16.7 mph /  26.9 km/h 16.7 mph /  26.9 km/h 45 % 0.0 in /  0 mm 0.0 W/m2 CLR
22:49 1.1 °F /  -17.2 °C -9.5 °F /  -23.1 °C 1012.4 in /  34279.9 hPa NW 18.5 mph /  29.8 km/h 18.5 mph /  29.8 km/h 45 % 0.0 in /  0 mm 0.0 W/m2 CLR
22:54 0.6 °F /  -17.4 °C -9.8 °F /  -23.2 °C 1012.8 in /  34293.4 hPa NW 14.5 mph /  23.3 km/h 14.5 mph /  23.3 km/h 46 % 0.0 in /  0 mm 0.0 W/m2 CLR
22:59 0.6 °F /  -17.4 °C -9.8 °F /  -23.2 °C 1012.8 in /  34293.4 hPa NW 13.0 mph /  20.9 km/h 13.0 mph /  20.9 km/h 46 % 0.0 in /  0 mm 0.0 W/m2 CLR
23:04 0.6 °F /  -17.4 °C -9.8 °F /  -23.2 °C 1012.8 in /  34293.4 hPa WNW 14.8 mph /  23.8 km/h 14.8 mph /  23.8 km/h 46 % 0.0 in /  0 mm 0.0 W/m2 CLR
23:09 0.0 °F /  -17.8 °C -10.3 °F /  -23.5 °C 1012.8 in /  34293.4 hPa WNW 14.8 mph /  23.8 km/h 14.8 mph /  23.8 km/h 46 % 0.0 in /  0 mm 0.0 W/m2 CLR
23:14 0.0 °F /  -17.8 °C -10.3 °F /  -23.5 °C 1012.8 in /  34293.4 hPa WNW 12.9 mph /  20.8 km/h 12.9 mph /  20.8 km/h 46 % 0.0 in /  0 mm 0.0 W/m2 CLR
23:19 0.6 °F /  -17.4 °C -9.8 °F /  -23.2 °C 1012.8 in /  34293.4 hPa NW 18.5 mph /  29.8 km/h 18.5 mph /  29.8 km/h 46 % 0.0 in /  0 mm 0.0 W/m2 CLR
23:24 0.6 °F /  -17.4 °C -9.8 °F /  -23.2 °C 1012.8 in /  34293.4 hPa NW 18.5 mph /  29.8 km/h 18.5 mph /  29.8 km/h 46 % 0.0 in /  0 mm 0.0 W/m2 CLR
23:29 0.6 °F /  -17.4 °C -9.8 °F /  -23.2 °C 1012.8 in /  34293.4 hPa NW 18.5 mph /  29.8 km/h 18.5 mph /  29.8 km/h 46 % 0.0 in /  0 mm 0.0 W/m2 CLR
23:34 2.2 °F /  -16.6 °C -7.9 °F /  -22.2 °C 1012.8 in /  34293.4 hPa NNW 16.1 mph /  25.9 km/h 16.1 mph /  25.9 km/h 47 % 0.0 in /  0 mm 0.0 W/m2 CLR
23:39 2.8 °F /  -16.2 °C -7.4 °F /  -21.9 °C 1012.8 in /  34293.4 hPa NNW 22.2 mph /  35.7 km/h 22.2 mph /  35.7 km/h 47 % 0.0 in /  0 mm 0.0 W/m2 CLR
23:44 3.9 °F /  -15.6 °C -6.4 °F /  -21.3 °C 1012.8 in /  34293.4 hPa NW 19.3 mph /  31.1 km/h 19.3 mph /  31.1 km/h 47 % 0.0 in /  0 mm 0.0 W/m2 CLR
23:49 5.6 °F /  -14.7 °C -4.9 °F /  -20.5 °C 1012.8 in /  34293.4 hPa NW 18.5 mph /  29.8 km/h 18.5 mph /  29.8 km/h 47 % 0.0 in /  0 mm 0.0 W/m2 CLR
23:54 6.7 °F /  -14.1 °C -3.9 °F /  -19.9 °C 1012.8 in /  34293.4 hPa NW 20.4 mph /  32.8 km/h 20.4 mph /  32.8 km/h 47 % 0.0 in /  0 mm 0.0 W/m2 CLR
23:59 7.2 °F /  -13.8 °C -3.3 °F /  -19.6 °C 1012.8 in /  34293.4 hPa NW 20.4 mph /  32.8 km/h 20.4 mph /  32.8 km/h 47 % 0.0 in /  0 mm 0.0 W/m2 CLR
Lo Temps de Massalio
Compliments of Weather Underground - 1.25 mb